Terminal Aerodrome Forecast
Issued by NWS

Home | Current Version | Previous Version | Graphics & Text | Print | Product List | Glossary On
Versions: 1 2 3 4 5 6 7 8 9 10 11 12 13 14 15
795
FTUS43 KBIS 141132
TAFJMS
TAF
KJMS 141132Z 1412/1512 10005KT P6SM VCSH OVC090
     FM141300 10008KT P6SM -RA OVC050
     FM141600 08006KT P6SM -RA BKN020 OVC030
     FM142000 02011KT P6SM VCSH SCT015 OVC040
     FM142300 35011KT P6SM SCT015 OVC050
     FM150500 29005KT P6SM SKC=

USA.gov is the U.S. government's official web portal to all federal, state and local government web resources and services.